Time;durP1;ratioP1;P1;durP2;ratioP2;P2;SDS_P1;SDS_P2;PMS_P1;PMS_P2;Temp;Humidity;BMP_temperature;BMP_pressure;BME280_temperature;BME280_humidity;BME280_pressure;Samples;Min_cycle;Max_cycle;Signal;HPM_P1;HPM_P2
2023/08/01 00:00:10;;;;;;;19.98;5.40;;;16.00;99.90;;;;;;5075024;28;20057;-72
2023/08/01 00:02:38;;;;;;;23.80;5.32;;;16.00;99.90;;;;;;5058365;28;272665;-72
2023/08/01 00:05:04;;;;;;;20.70;5.55;;;16.00;99.90;;;;;;5063647;28;20057;-73
2023/08/01 00:07:30;;;;;;;21.42;5.30;;;16.00;99.90;;;;;;5065844;28;135112;-72
2023/08/01 00:09:57;;;;;;;21.77;5.40;;;16.00;99.90;;;;;;5076563;28;20454;-72
2023/08/01 00:12:24;;;;;;;22.48;4.72;;;16.00;99.90;;;;;;5057417;28;276159;-73
2023/08/01 00:14:50;;;;;;;18.80;4.93;;;16.00;99.90;;;;;;5054358;28;20056;-72
2023/08/01 00:17:16;;;;;;;18.88;5.43;;;16.00;99.90;;;;;;5058690;28;105831;-72
2023/08/01 00:19:42;;;;;;;19.63;5.20;;;16.00;99.90;;;;;;5063199;28;20052;-72
2023/08/01 00:22:08;;;;;;;18.42;5.13;;;16.00;99.90;;;;;;5056341;28;256199;-71
2023/08/01 00:24:35;;;;;;;19.42;4.75;;;16.00;99.90;;;;;;5066954;28;20057;-72
2023/08/01 00:27:02;;;;;;;27.88;6.00;;;16.00;99.90;;;;;;5053664;28;276744;-74
2023/08/01 00:29:28;;;;;;;20.02;5.45;;;16.00;99.90;;;;;;5069219;28;20056;-75
2023/08/01 00:31:54;;;;;;;21.02;4.93;;;16.00;99.90;;;;;;5035610;28;250667;-75
2023/08/01 00:34:20;;;;;;;15.80;3.75;;;15.80;99.90;;;;;;5065774;28;20052;-75
2023/08/01 00:36:46;;;;;;;16.55;4.57;;;15.40;99.90;;;;;;5048664;28;252926;-75
2023/08/01 00:39:12;;;;;;;11.35;4.10;;;15.10;99.90;;;;;;5059607;28;20045;-75
2023/08/01 00:41:38;;;;;;;12.35;4.13;;;15.00;99.90;;;;;;5051579;28;273322;-74
2023/08/01 00:44:04;;;;;;;13.07;4.47;;;14.90;99.90;;;;;;5077626;28;20048;-72
2023/08/01 00:46:32;;;;;;;13.40;4.75;;;14.90;99.90;;;;;;5066918;28;20071;-73
2023/08/01 00:49:00;;;;;;;15.73;4.88;;;14.90;99.90;;;;;;5031921;28;20062;-73
2023/08/01 00:51:27;;;;;;;15.75;4.80;;;14.90;99.90;;;;;;5069768;28;20071;-73
2023/08/01 00:53:53;;;;;;;13.93;4.72;;;14.90;99.90;;;;;;5030797;28;172847;-74
2023/08/01 00:56:19;;;;;;;16.20;4.55;;;14.90;99.90;;;;;;5068784;28;20067;-74
2023/08/01 00:58:46;;;;;;;15.77;4.78;;;15.00;99.90;;;;;;5049329;28;106948;-74
2023/08/01 01:01:12;;;;;;;17.83;5.38;;;15.00;99.90;;;;;;5064092;28;20052;-72
2023/08/01 01:03:39;;;;;;;16.92;4.63;;;15.00;99.90;;;;;;5064649;28;272820;-72
2023/08/01 01:06:12;;;;;;;17.65;4.88;;;15.00;99.90;;;;;;5070333;28;20048;-74
2023/08/01 01:08:38;;;;;;;16.98;5.10;;;15.00;99.90;;;;;;5049631;28;198625;-75
2023/08/01 01:11:05;;;;;;;22.65;5.57;;;15.10;99.90;;;;;;5085672;28;20067;-76
2023/08/01 01:13:31;;;;;;;18.98;5.60;;;15.10;99.90;;;;;;5053210;28;239776;-76
2023/08/01 01:15:57;;;;;;;18.25;4.72;;;15.10;99.90;;;;;;5070360;28;20056;-75
2023/08/01 01:18:23;;;;;;;19.48;5.55;;;15.10;99.90;;;;;;5056651;28;254716;-75
2023/08/01 01:20:49;;;;;;;15.05;4.78;;;15.10;99.90;;;;;;5073925;28;20510;-74
2023/08/01 01:23:16;;;;;;;17.75;5.70;;;15.10;99.90;;;;;;5052142;28;172742;-74
2023/08/01 01:25:42;;;;;;;14.95;5.25;;;15.10;99.90;;;;;;5057747;28;20407;-73
2023/08/01 01:28:11;;;;;;;18.77;5.72;;;15.10;99.90;;;;;;5048051;28;207239;-73
2023/08/01 01:30:38;;;;;;;14.80;5.05;;;15.10;99.90;;;;;;5062349;28;20079;-72
2023/08/01 01:33:04;;;;;;;16.08;5.22;;;15.10;99.90;;;;;;5058555;28;267453;-71
2023/08/01 01:35:34;;;;;;;16.45;5.20;;;15.10;99.90;;;;;;5063383;28;20056;-71
2023/08/01 01:38:03;;;;;;;17.75;4.90;;;15.20;99.90;;;;;;5050790;28;183610;-71
2023/08/01 01:40:30;;;;;;;15.68;5.00;;;15.20;99.90;;;;;;5059231;28;20643;-71
2023/08/01 01:42:57;;;;;;;17.25;5.15;;;15.20;99.90;;;;;;5059677;28;258280;-70
2023/08/01 01:45:23;;;;;;;19.10;5.32;;;15.20;99.90;;;;;;5066197;28;20056;-71
2023/08/01 01:47:52;;;;;;;16.60;5.60;;;15.20;99.90;;;;;;5053388;28;266958;-72
2023/08/01 01:50:18;;;;;;;17.20;5.20;;;15.20;99.90;;;;;;5067329;28;20044;-70
2023/08/01 01:52:45;;;;;;;18.77;5.68;;;15.20;99.90;;;;;;5040305;28;220245;-70
2023/08/01 01:55:11;;;;;;;14.85;5.28;;;15.20;99.90;;;;;;5070379;28;20585;-70
2023/08/01 01:57:38;;;;;;;15.95;5.35;;;15.20;99.90;;;;;;5056979;28;255188;-70
2023/08/01 02:00:04;;;;;;;20.60;6.05;;;15.20;99.90;;;;;;5050699;28;20056;-71
2023/08/01 02:02:31;;;;;;;22.88;7.38;;;15.20;99.90;;;;;;5054976;28;257330;-71
2023/08/01 02:04:57;;;;;;;27.10;7.82;;;15.20;99.90;;;;;;5071661;28;20078;-71
2023/08/01 02:07:23;;;;;;;25.58;8.52;;;15.20;99.90;;;;;;5053488;28;264548;-70
2023/08/01 02:09:49;;;;;;;21.38;7.90;;;15.30;99.90;;;;;;5064225;28;20067;-71
2023/08/01 02:12:15;;;;;;;23.48;7.55;;;15.20;99.90;;;;;;5054504;28;273917;-71
2023/08/01 02:14:41;;;;;;;19.55;7.13;;;15.20;99.90;;;;;;5074850;28;20056;-70
2023/08/01 02:17:07;;;;;;;19.70;6.45;;;15.20;99.90;;;;;;5044829;28;271833;-70
2023/08/01 02:19:34;;;;;;;24.50;7.20;;;15.20;99.90;;;;;;5063042;28;20057;-70
2023/08/01 02:22:00;;;;;;;20.38;6.63;;;15.20;99.90;;;;;;5046853;28;255908;-70
2023/08/01 02:24:26;;;;;;;23.05;6.90;;;15.10;99.90;;;;;;5072123;28;20053;-71
2023/08/01 02:26:52;;;;;;;23.83;6.78;;;15.10;99.90;;;;;;5051228;28;256770;-71
2023/08/01 02:29:18;;;;;;;21.13;6.35;;;15.10;99.90;;;;;;5059307;28;20051;-71
2023/08/01 02:31:44;;;;;;;26.27;7.00;;;15.00;99.90;;;;;;5047799;28;262107;-71
2023/08/01 02:34:10;;;;;;;24.58;6.50;;;15.00;99.90;;;;;;5076736;28;20056;-71
2023/08/01 02:36:36;;;;;;;21.70;6.95;;;15.00;99.90;;;;;;5045775;28;263055;-71
2023/08/01 02:39:02;;;;;;;25.10;7.45;;;15.00;99.90;;;;;;5060012;28;20499;-70
2023/08/01 02:41:28;;;;;;;28.45;7.63;;;15.00;99.90;;;;;;5064566;28;20052;-71
2023/08/01 02:43:54;;;;;;;23.42;7.22;;;14.90;99.90;;;;;;5055530;28;276823;-71
2023/08/01 02:46:20;;;;;;;23.60;7.57;;;14.90;99.90;;;;;;5066980;28;20052;-71
2023/08/01 02:48:46;;;;;;;22.52;7.32;;;14.90;99.90;;;;;;5053680;28;252368;-72
2023/08/01 02:51:13;;;;;;;25.50;7.53;;;14.90;99.90;;;;;;5067874;28;20056;-71
2023/08/01 02:53:41;;;;;;;21.20;7.70;;;14.90;99.90;;;;;;5028180;28;164096;-72
2023/08/01 02:56:09;;;;;;;25.05;8.05;;;14.90;99.90;;;;;;5060634;28;20061;-73
2023/08/01 02:58:36;;;;;;;27.10;8.20;;;15.00;99.90;;;;;;5052516;28;79723;-72
2023/08/01 03:01:09;;;;;;;29.38;8.82;;;15.00;99.90;;;;;;5080358;28;20049;-72
2023/08/01 03:03:36;;;;;;;25.83;7.80;;;15.00;99.90;;;;;;5059966;28;274074;-72
2023/08/01 03:06:02;;;;;;;32.92;9.07;;;15.00;99.90;;;;;;5065764;28;20040;-72
2023/08/01 03:08:28;;;;;;;28.13;8.63;;;15.00;99.90;;;;;;5053329;28;167723;-73
2023/08/01 03:10:55;;;;;;;29.55;8.65;;;15.00;99.90;;;;;;5070970;28;20052;-72
2023/08/01 03:13:22;;;;;;;22.42;7.55;;;15.10;99.90;;;;;;5055926;28;258506;-72
2023/08/01 03:15:48;;;;;;;19.45;6.25;;;15.10;99.90;;;;;;5069186;28;20583;-73
2023/08/01 03:18:14;;;;;;;23.48;7.38;;;15.10;99.90;;;;;;5056724;28;194074;-73
2023/08/01 03:20:40;;;;;;;21.85;7.38;;;15.10;99.90;;;;;;5069423;28;20446;-73
2023/08/01 03:23:06;;;;;;;17.10;5.72;;;15.00;99.90;;;;;;5049670;28;233234;-72
2023/08/01 03:25:32;;;;;;;20.15;5.97;;;15.00;99.90;;;;;;5064245;28;20059;-72
2023/08/01 03:27:59;;;;;;;19.10;5.78;;;14.90;99.90;;;;;;5061432;28;260304;-71
2023/08/01 03:30:25;;;;;;;19.15;4.90;;;14.90;99.90;;;;;;5047756;28;20068;-71
2023/08/01 03:32:51;;;;;;;17.33;4.75;;;14.90;99.90;;;;;;5057440;28;87443;-71
2023/08/01 03:35:18;;;;;;;12.05;4.22;;;14.90;99.90;;;;;;5072651;28;20067;-71
2023/08/01 03:37:44;;;;;;;16.90;4.22;;;14.80;99.90;;;;;;5053560;28;268933;-70
2023/08/01 03:40:10;;;;;;;16.70;4.80;;;14.80;99.90;;;;;;5065237;28;20541;-70
2023/08/01 03:42:40;;;;;;;17.48;4.35;;;14.80;99.90;;;;;;5060382;28;273200;-70
2023/08/01 03:45:07;;;;;;;17.58;4.70;;;14.80;99.90;;;;;;5085916;28;20056;-70
2023/08/01 03:47:33;;;;;;;16.65;4.10;;;14.80;99.90;;;;;;5051467;28;265803;-70
2023/08/01 03:49:59;;;;;;;15.95;4.07;;;14.80;99.90;;;;;;5063713;28;20510;-70
2023/08/01 03:52:25;;;;;;;17.30;4.22;;;14.80;99.90;;;;;;5043824;28;204409;-71
2023/08/01 03:54:55;;;;;;;13.48;3.67;;;14.70;99.90;;;;;;5075951;28;20056;-69
2023/08/01 03:57:21;;;;;;;18.33;4.00;;;14.80;99.90;;;;;;5070202;28;93873;-70
2023/08/01 03:59:47;;;;;;;14.70;3.60;;;14.80;99.90;;;;;;5066122;28;20053;-70
2023/08/01 04:02:13;;;;;;;12.52;2.97;;;14.70;99.90;;;;;;5056817;28;263793;-70
2023/08/01 04:04:39;;;;;;;14.30;3.00;;;14.70;99.90;;;;;;5079278;28;20055;-70
2023/08/01 04:07:05;;;;;;;13.05;2.85;;;14.70;99.90;;;;;;5054174;28;91392;-71
2023/08/01 04:09:31;;;;;;;15.63;3.10;;;14.70;99.90;;;;;;5055082;28;20044;-71
2023/08/01 04:11:57;;;;;;;12.27;2.55;;;14.70;99.90;;;;;;5037003;28;236716;-72
2023/08/01 04:14:24;;;;;;;13.05;2.78;;;14.60;99.90;;;;;;5057915;28;20080;-72
2023/08/01 04:16:50;;;;;;;12.77;3.10;;;14.60;99.90;;;;;;5051543;28;265054;-72
2023/08/01 04:19:16;;;;;;;13.70;2.80;;;14.60;99.90;;;;;;5083917;28;20048;-71
2023/08/01 04:21:42;;;;;;;11.25;2.53;;;14.60;99.90;;;;;;5051368;28;257171;-71
2023/08/01 04:24:08;;;;;;;11.07;2.40;;;14.70;99.90;;;;;;5063276;28;20423;-70
2023/08/01 04:26:34;;;;;;;13.88;2.70;;;14.60;99.90;;;;;;5044547;28;274812;-71
2023/08/01 04:29:00;;;;;;;13.30;2.85;;;14.60;99.90;;;;;;5082660;28;20056;-71
2023/08/01 04:31:26;;;;;;;11.43;3.28;;;14.60;99.90;;;;;;5065447;28;20056;-70
2023/08/01 04:33:52;;;;;;;11.30;2.80;;;14.60;99.90;;;;;;5057754;28;305409;-71
2023/08/01 04:36:18;;;;;;;12.82;3.03;;;14.60;99.90;;;;;;5066077;28;20052;-71
2023/08/01 04:38:44;;;;;;;12.93;3.00;;;14.50;99.90;;;;;;5053380;28;95292;-70
2023/08/01 04:41:10;;;;;;;12.55;2.92;;;14.50;99.90;;;;;;5065696;28;20048;-71
2023/08/01 04:43:36;;;;;;;10.00;2.90;;;14.50;99.90;;;;;;5066173;28;279642;-71
2023/08/01 04:46:03;;;;;;;10.65;2.80;;;14.50;99.90;;;;;;5082248;28;20064;-70
2023/08/01 04:48:29;;;;;;;12.75;2.70;;;14.50;99.90;;;;;;5050904;28;25955;-71
2023/08/01 04:50:55;;;;;;;14.75;2.78;;;14.40;99.90;;;;;;5064246;28;20411;-70
2023/08/01 04:53:21;;;;;;;9.30;2.58;;;14.40;99.90;;;;;;5039012;28;248780;-71
2023/08/01 04:55:47;;;;;;;11.82;2.72;;;14.40;99.90;;;;;;5071241;28;20069;-70
2023/08/01 04:58:13;;;;;;;9.93;2.47;;;14.40;99.90;;;;;;5043553;28;223609;-71
2023/08/01 05:00:41;;;;;;;12.50;2.67;;;14.40;99.90;;;;;;5064833;28;20060;-71
2023/08/01 05:03:07;;;;;;;9.88;2.60;;;14.50;99.90;;;;;;5054208;28;279827;-70
2023/08/01 05:05:33;;;;;;;10.85;2.70;;;14.60;99.90;;;;;;5066042;28;20502;-71
2023/08/01 05:07:59;;;;;;;10.52;2.75;;;14.60;99.90;;;;;;5061216;28;260842;-71
2023/08/01 05:10:25;;;;;;;11.55;2.50;;;14.60;99.90;;;;;;5076015;28;20060;-71
2023/08/01 05:12:51;;;;;;;12.13;2.50;;;14.60;99.90;;;;;;5060512;28;278388;-71
2023/08/01 05:15:17;;;;;;;9.75;2.30;;;14.60;99.90;;;;;;5050219;28;20059;-71
2023/08/01 05:17:43;;;;;;;10.05;2.50;;;14.60;99.90;;;;;;5057545;28;269340;-71
2023/08/01 05:20:10;;;;;;;11.82;2.42;;;14.60;99.90;;;;;;5061307;28;20068;-71
2023/08/01 05:22:36;;;;;;;10.82;2.47;;;14.70;99.90;;;;;;5055564;28;107580;-71
2023/08/01 05:25:03;;;;;;;10.32;2.42;;;14.70;99.90;;;;;;5074578;28;20661;-71
2023/08/01 05:27:29;;;;;;;10.65;2.83;;;14.80;99.90;;;;;;5047840;28;318982;-71
2023/08/01 05:29:55;;;;;;;10.98;2.70;;;14.90;99.90;;;;;;5067446;28;20052;-72
2023/08/01 05:32:22;;;;;;;10.00;2.65;;;14.90;99.90;;;;;;5050323;28;264575;-72
2023/08/01 05:34:48;;;;;;;10.77;2.78;;;15.00;99.90;;;;;;5070901;28;20053;-71
2023/08/01 05:37:14;;;;;;;9.60;2.67;;;15.10;99.90;;;;;;5046273;28;255548;-72
2023/08/01 05:39:40;;;;;;;10.38;2.50;;;15.10;99.90;;;;;;5072298;28;20063;-71
2023/08/01 05:42:08;;;;;;;9.38;2.17;;;15.10;99.90;;;;;;5042938;28;57508;-72
2023/08/01 05:44:35;;;;;;;10.85;2.30;;;15.10;99.90;;;;;;5018617;28;20507;-72
2023/08/01 05:47:01;;;;;;;9.60;2.63;;;15.10;99.90;;;;;;5030393;28;275301;-71
2023/08/01 05:49:29;;;;;;;9.68;2.58;;;15.20;99.90;;;;;;5070529;28;20048;-70
2023/08/01 05:51:55;;;;;;;12.10;2.75;;;15.20;99.90;;;;;;5037943;28;274400;-72
2023/08/01 05:54:21;;;;;;;11.68;2.65;;;15.30;99.90;;;;;;5078692;28;20056;-72
2023/08/01 05:56:47;;;;;;;10.77;2.65;;;15.30;99.90;;;;;;5048253;28;276837;-71
2023/08/01 05:59:14;;;;;;;13.18;2.78;;;15.30;99.90;;;;;;5069124;28;20060;-72
2023/08/01 06:01:40;;;;;;;11.50;2.58;;;15.40;99.90;;;;;;5049170;28;251421;-72
2023/08/01 06:04:06;;;;;;;10.05;2.75;;;15.40;99.90;;;;;;5077879;28;20064;-73
2023/08/01 06:06:32;;;;;;;10.77;2.70;;;15.40;99.90;;;;;;5065622;28;20530;-72
2023/08/01 06:08:58;;;;;;;9.48;2.47;;;15.50;99.90;;;;;;5043761;28;20051;-72
2023/08/01 06:11:25;;;;;;;12.35;2.90;;;15.50;99.90;;;;;;5068312;28;20059;-72
2023/08/01 06:13:52;;;;;;;10.95;2.72;;;15.40;99.90;;;;;;5062168;28;263481;-72
2023/08/01 06:16:18;;;;;;;11.18;2.53;;;15.40;99.90;;;;;;5068032;28;20045;-72
2023/08/01 06:18:44;;;;;;;8.40;2.55;;;15.40;99.90;;;;;;5028127;28;73663;-72
2023/08/01 06:21:10;;;;;;;10.98;2.67;;;15.40;99.90;;;;;;5055899;28;20435;-72
2023/08/01 06:23:36;;;;;;;9.73;2.60;;;15.40;99.90;;;;;;5025614;28;183239;-73
2023/08/01 06:26:02;;;;;;;10.65;3.13;;;15.40;99.90;;;;;;5067091;28;20043;-71
2023/08/01 06:28:28;;;;;;;11.75;2.80;;;15.40;99.90;;;;;;5051044;28;246431;-72
2023/08/01 06:30:55;;;;;;;12.65;3.35;;;15.40;99.90;;;;;;5061123;28;20067;-72
2023/08/01 06:33:21;;;;;;;14.43;3.08;;;15.40;99.90;;;;;;5033276;28;53897;-72
2023/08/01 06:35:47;;;;;;;11.73;3.20;;;15.50;99.90;;;;;;5065322;28;20423;-72
2023/08/01 06:38:13;;;;;;;11.40;3.40;;;15.50;99.90;;;;;;5051471;28;240667;-72
2023/08/01 06:40:39;;;;;;;12.52;3.13;;;15.60;99.90;;;;;;5062260;28;20063;-72
2023/08/01 06:43:05;;;;;;;9.95;2.80;;;15.50;99.90;;;;;;5059799;28;267558;-71
2023/08/01 06:45:31;;;;;;;12.02;3.28;;;15.50;99.90;;;;;;5065338;28;20068;-72
2023/08/01 06:47:57;;;;;;;11.27;3.22;;;15.50;99.90;;;;;;5042928;28;182463;-73
2023/08/01 06:50:23;;;;;;;11.90;3.20;;;15.60;99.90;;;;;;5043080;28;20060;-72
2023/08/01 06:52:50;;;;;;;12.18;2.95;;;15.60;99.90;;;;;;5025949;28;217601;-72
2023/08/01 06:55:16;;;;;;;13.60;3.20;;;15.80;99.90;;;;;;5058369;28;20059;-72
2023/08/01 06:57:42;;;;;;;12.35;2.92;;;16.00;99.90;;;;;;5049604;28;277771;-72
2023/08/01 07:00:08;;;;;;;10.98;2.60;;;16.00;99.90;;;;;;5063479;28;20052;-72
2023/08/01 07:02:34;;;;;;;11.30;2.70;;;16.20;99.90;;;;;;5050735;28;253267;-72
2023/08/01 07:05:01;;;;;;;13.13;2.70;;;16.20;99.90;;;;;;5073682;28;20056;-71
2023/08/01 07:07:27;;;;;;;11.63;2.60;;;16.20;99.90;;;;;;5051081;28;263542;-73
2023/08/01 07:09:53;;;;;;;12.07;2.80;;;16.30;99.90;;;;;;5078468;28;20056;-73
2023/08/01 07:12:19;;;;;;;12.05;2.80;;;16.30;99.90;;;;;;5048740;28;170131;-72
2023/08/01 07:14:45;;;;;;;12.25;2.58;;;16.30;99.90;;;;;;5062828;28;20056;-72
2023/08/01 07:17:11;;;;;;;12.95;2.45;;;16.20;99.90;;;;;;5051502;28;211028;-72
2023/08/01 07:19:37;;;;;;;11.07;2.30;;;16.20;99.90;;;;;;5074389;28;20071;-71
2023/08/01 07:22:03;;;;;;;10.73;2.13;;;16.20;99.90;;;;;;5056186;28;102389;-71
2023/08/01 07:24:29;;;;;;;10.43;2.05;;;16.10;99.90;;;;;;5077993;28;20059;-72
2023/08/01 07:26:55;;;;;;;12.80;1.90;;;16.10;99.90;;;;;;5043520;28;270043;-73
2023/08/01 07:29:21;;;;;;;9.73;1.80;;;16.10;99.90;;;;;;5064676;28;20052;-73
2023/08/01 07:31:47;;;;;;;10.38;1.98;;;16.30;99.90;;;;;;5029925;28;271976;-72
2023/08/01 07:34:14;;;;;;;8.82;1.73;;;16.30;99.90;;;;;;5055823;28;20055;-73
2023/08/01 07:36:40;;;;;;;10.48;1.83;;;16.20;99.90;;;;;;5045513;28;257483;-71
2023/08/01 07:39:06;;;;;;;9.20;1.58;;;16.20;99.90;;;;;;5077481;28;20060;-72
2023/08/01 07:41:33;;;;;;;10.63;1.58;;;16.10;99.90;;;;;;5067448;28;20056;-72
2023/08/01 07:44:02;;;;;;;10.57;1.77;;;16.10;99.90;;;;;;5061056;28;20499;-72
2023/08/01 07:46:28;;;;;;;11.63;1.58;;;16.10;99.90;;;;;;5063346;28;20506;-72
2023/08/01 07:48:54;;;;;;;11.13;1.75;;;16.10;99.90;;;;;;5044926;28;269209;-72
2023/08/01 07:51:20;;;;;;;11.18;1.63;;;16.10;99.90;;;;;;5066757;28;20666;-72
2023/08/01 07:53:52;;;;;;;7.78;1.60;;;16.20;99.90;;;;;;5002356;28;239411;-72
2023/08/01 07:56:19;;;;;;;10.07;1.67;;;16.30;99.90;;;;;;5065454;28;20510;-72
2023/08/01 07:58:45;;;;;;;11.60;2.05;;;16.30;99.90;;;;;;5048760;28;245526;-72
2023/08/01 08:01:11;;;;;;;10.65;2.15;;;16.30;99.90;;;;;;5066611;28;20044;-73
2023/08/01 08:03:37;;;;;;;12.45;2.20;;;16.30;99.90;;;;;;5053232;28;121000;-74
2023/08/01 08:06:05;;;;;;;8.48;1.90;;;16.30;99.90;;;;;;5067601;28;20041;-72
2023/08/01 08:08:33;;;;;;;11.40;1.75;;;16.20;99.90;;;;;;5047985;28;236837;-72
2023/08/01 08:11:01;;;;;;;10.43;1.80;;;16.10;99.90;;;;;;5055155;28;20420;-73
2023/08/01 08:13:27;;;;;;;11.50;2.17;;;16.00;99.90;;;;;;5059148;28;252558;-72
2023/08/01 08:15:56;;;;;;;12.50;2.05;;;16.00;99.90;;;;;;5065050;28;20048;-74
2023/08/01 08:18:23;;;;;;;9.40;1.73;;;16.00;99.90;;;;;;5059690;28;266813;-73
2023/08/01 08:20:49;;;;;;;8.93;1.48;;;16.00;99.90;;;;;;5051660;28;20467;-73
2023/08/01 08:23:15;;;;;;;9.32;1.70;;;15.80;99.90;;;;;;5059892;28;267785;-72
2023/08/01 08:25:47;;;;;;;6.88;1.38;;;15.80;99.90;;;;;;5075458;28;20055;-72
2023/08/01 08:28:13;;;;;;;11.25;1.90;;;15.70;99.90;;;;;;5044315;28;195578;-73
2023/08/01 08:30:40;;;;;;;13.02;2.10;;;15.70;99.90;;;;;;5065994;28;20052;-72
2023/08/01 08:33:06;;;;;;;7.38;1.52;;;15.70;99.90;;;;;;5048959;28;91960;-73
2023/08/01 08:35:36;;;;;;;10.27;1.80;;;15.70;99.90;;;;;;5063826;28;20090;-73
2023/08/01 08:38:06;;;;;;;10.88;1.60;;;15.70;99.90;;;;;;5054427;28;262001;-73
2023/08/01 08:40:33;;;;;;;8.85;1.83;;;15.70;99.90;;;;;;5075171;28;20040;-72
2023/08/01 08:43:05;;;;;;;10.63;1.98;;;15.70;99.90;;;;;;5049075;28;21250;-72
2023/08/01 08:45:35;;;;;;;11.38;2.00;;;15.80;99.90;;;;;;5051099;28;20515;-72
2023/08/01 08:48:12;;;;;;;9.88;2.05;;;15.90;99.90;;;;;;5046907;28;267695;-71
2023/08/01 08:50:39;;;;;;;8.80;1.80;;;15.90;99.90;;;;;;5069156;28;20067;-73
2023/08/01 08:53:12;;;;;;;9.40;2.10;;;15.80;99.90;;;;;;5030871;28;207507;-71
2023/08/01 08:55:42;;;;;;;9.25;2.10;;;15.90;99.90;;;;;;5060335;28;20148;-71
2023/08/01 08:58:08;;;;;;;10.23;2.08;;;16.00;99.90;;;;;;5063948;28;275097;-71
2023/08/01 09:00:37;;;;;;;11.13;2.30;;;16.20;99.90;;;;;;5068509;28;20053;-70
2023/08/01 09:03:04;;;;;;;9.35;2.22;;;16.30;99.90;;;;;;5052504;28;90127;-71
2023/08/01 09:05:49;;;;;;;8.90;1.88;;;16.50;99.90;;;;;;5063389;28;20079;-71
2023/08/01 09:08:21;;;;;;;11.05;2.10;;;16.40;99.90;;;;;;5060582;28;209074;-72
2023/08/01 09:10:47;;;;;;;11.05;2.08;;;16.30;99.90;;;;;;5070970;28;20063;-72
2023/08/01 09:13:14;;;;;;;8.57;2.13;;;16.20;99.90;;;;;;5065398;28;256912;-74
2023/08/01 09:15:43;;;;;;;10.23;1.77;;;16.10;99.90;;;;;;5067033;28;20060;-72
2023/08/01 09:18:09;;;;;;;11.20;2.17;;;16.10;99.90;;;;;;5054670;28;65168;-72
2023/08/01 09:21:02;;;;;;;12.77;2.13;;;16.10;99.90;;;;;;5073579;28;20040;-74
2023/08/01 09:23:30;;;;;;;10.23;2.25;;;16.10;99.90;;;;;;5050630;28;27694;-72
2023/08/01 09:25:56;;;;;;;9.05;2.20;;;16.10;99.90;;;;;;5068480;28;20067;-72
2023/08/01 09:28:23;;;;;;;8.60;2.28;;;16.10;99.90;;;;;;5059229;28;258464;-73
2023/08/01 09:30:52;;;;;;;9.85;2.03;;;16.10;99.90;;;;;;5061797;28;20044;-72
2023/08/01 09:33:18;;;;;;;9.85;2.20;;;16.10;99.90;;;;;;5043383;28;195352;-72
2023/08/01 09:35:45;;;;;;;10.80;2.20;;;16.10;99.90;;;;;;5065283;28;20045;-71
2023/08/01 09:38:15;;;;;;;9.82;2.38;;;16.50;99.90;;;;;;5052954;28;257701;-71
2023/08/01 09:40:42;;;;;;;8.88;1.77;;;16.60;99.90;;;;;;5068700;28;20503;-70
2023/08/01 09:43:13;;;;;;;9.10;2.20;;;16.70;99.90;;;;;;5051631;28;216957;-71
2023/08/01 09:45:52;;;;;;;11.93;2.40;;;16.60;99.90;;;;;;5067853;28;20779;-71
2023/08/01 09:48:28;;;;;;;10.18;2.30;;;16.50;99.90;;;;;;5040120;28;232884;-71
2023/08/01 09:51:24;;;;;;;10.13;2.28;;;16.40;99.90;;;;;;5065387;28;20106;-70
2023/08/01 09:53:56;;;;;;;12.43;2.88;;;16.50;99.90;;;;;;5038650;28;87570;-70
2023/08/01 09:56:31;;;;;;;11.25;2.80;;;16.90;99.90;;;;;;5067144;28;20059;-70
2023/08/01 09:59:00;;;;;;;9.02;2.50;;;17.30;99.90;;;;;;5055949;28;70532;-71
2023/08/01 10:01:27;;;;;;;12.00;2.00;;;18.30;99.90;;;;;;5059032;28;20044;-71
2023/08/01 10:03:56;;;;;;;9.85;2.30;;;18.10;99.90;;;;;;5060389;28;255779;-70
2023/08/01 10:06:24;;;;;;;8.15;1.70;;;18.00;99.90;;;;;;5068626;28;20513;-72
2023/08/01 10:08:52;;;;;;;8.98;1.70;;;17.60;99.90;;;;;;5066386;28;282884;-71
2023/08/01 10:11:20;;;;;;;9.35;1.90;;;17.40;99.90;;;;;;5061168;28;20049;-73
2023/08/01 10:13:46;;;;;;;12.43;2.22;;;17.40;99.90;;;;;;5044161;28;196392;-71
2023/08/01 10:16:14;;;;;;;10.48;1.73;;;17.40;99.90;;;;;;5067566;28;20059;-71
2023/08/01 10:18:40;;;;;;;8.68;1.90;;;17.50;99.90;;;;;;5063799;28;266904;-71
2023/08/01 10:21:11;;;;;;;11.00;1.60;;;17.60;99.90;;;;;;5079161;28;20529;-71
2023/08/01 10:23:38;;;;;;;12.00;2.25;;;17.90;99.90;;;;;;5066061;28;275651;-70
2023/08/01 10:26:08;;;;;;;10.07;1.80;;;18.20;99.90;;;;;;5065303;28;20048;-72
2023/08/01 10:28:39;;;;;;;7.50;1.50;;;18.20;99.90;;;;;;5054889;28;285963;-72
2023/08/01 10:31:13;;;;;;;10.07;2.05;;;17.90;99.90;;;;;;5059035;28;20059;-72
2023/08/01 10:33:44;;;;;;;10.07;1.88;;;17.80;99.90;;;;;;5026180;28;152604;-72
2023/08/01 10:36:29;;;;;;;11.85;1.85;;;17.60;99.90;;;;;;5060379;28;20052;-72
2023/08/01 10:38:57;;;;;;;11.57;1.95;;;17.40;99.90;;;;;;5053497;28;245854;-72
2023/08/01 10:41:27;;;;;;;8.77;1.63;;;17.40;99.90;;;;;;5069257;28;20414;-72
2023/08/01 10:44:14;;;;;;;8.15;1.88;;;17.60;99.90;;;;;;5055754;28;36822;-72
2023/08/01 10:47:03;;;;;;;8.43;1.63;;;18.20;99.90;;;;;;5046366;28;260370;-72
2023/08/01 10:49:42;;;;;;;11.80;2.38;;;18.20;99.90;;;;;;5067470;28;20041;-72
2023/08/01 10:52:27;;;;;;;10.88;1.90;;;18.50;99.90;;;;;;5029234;28;253926;-72
2023/08/01 10:54:59;;;;;;;11.52;2.10;;;18.60;99.90;;;;;;5061392;28;20056;-71
2023/08/01 10:57:26;;;;;;;10.93;2.08;;;19.00;99.90;;;;;;5051069;28;255548;-72
2023/08/01 10:59:54;;;;;;;10.50;2.35;;;19.30;99.90;;;;;;5057922;28;20414;-72
2023/08/01 11:02:23;;;;;;;12.70;2.08;;;19.40;99.90;;;;;;5054235;28;161007;-71
2023/08/01 11:05:03;;;;;;;17.77;2.47;;;19.10;99.90;;;;;;5074198;28;20490;-72
2023/08/01 11:07:29;;;;;;;11.73;2.00;;;18.90;99.90;;;;;;5049228;28;268355;-73
2023/08/01 11:10:10;;;;;;;9.75;1.90;;;18.90;99.90;;;;;;5061765;28;20059;-72
2023/08/01 11:12:40;;;;;;;15.40;2.10;;;18.80;99.90;;;;;;5055714;28;262512;-71
2023/08/01 11:15:09;;;;;;;10.32;1.90;;;18.80;99.90;;;;;;5063238;28;20032;-71
2023/08/01 11:17:46;;;;;;;12.60;2.10;;;18.80;99.90;;;;;;5053561;28;268291;-70
2023/08/01 11:20:12;;;;;;;8.13;1.35;;;18.60;99.90;;;;;;5073803;28;20466;-70
2023/08/01 11:22:50;;;;;;;9.80;1.50;;;18.50;99.90;;;;;;5055337;28;82059;-71
2023/08/01 11:25:16;;;;;;;11.40;1.60;;;18.70;99.90;;;;;;5074401;28;20060;-72
2023/08/01 11:27:42;;;;;;;11.13;1.52;;;19.20;99.90;;;;;;5048080;28;76029;-72
2023/08/01 11:30:09;;;;;;;10.45;1.67;;;19.60;99.90;;;;;;5057062;28;20779;-72
2023/08/01 11:32:37;;;;;;;11.93;1.70;;;20.30;99.90;;;;;;5049918;28;67666;-71
2023/08/01 11:35:03;;;;;;;9.40;1.27;;;20.30;99.90;;;;;;5063040;28;20052;-72
2023/08/01 11:37:31;;;;;;;8.35;1.60;;;19.90;99.90;;;;;;5047434;28;133067;-71
2023/08/01 11:39:58;;;;;;;11.10;1.77;;;19.40;99.90;;;;;;5083262;28;20722;-71
2023/08/01 11:42:24;;;;;;;11.65;1.60;;;18.90;99.90;;;;;;5053242;28;231862;-71
2023/08/01 11:44:50;;;;;;;12.90;1.88;;;18.80;99.90;;;;;;5060570;28;20521;-71
2023/08/01 11:47:19;;;;;;;10.95;1.77;;;18.70;99.90;;;;;;5049364;28;261511;-71
2023/08/01 11:49:47;;;;;;;11.38;1.70;;;18.80;99.90;;;;;;5058267;28;20144;-72
2023/08/01 11:52:27;;;;;;;10.32;1.60;;;19.30;99.90;;;;;;5044089;28;121433;-72
2023/08/01 11:54:57;;;;;;;8.50;1.63;;;19.80;99.90;;;;;;5059766;28;20057;-71
2023/08/01 11:57:23;;;;;;;10.90;1.67;;;19.80;99.90;;;;;;5039518;28;219306;-72
2023/08/01 11:59:55;;;;;;;13.77;1.90;;;19.70;99.90;;;;;;5076467;28;20041;-71
2023/08/01 12:02:26;;;;;;;9.48;1.65;;;19.50;99.90;;;;;;5056386;28;192484;-72
2023/08/01 12:04:52;;;;;;;10.63;1.80;;;19.80;99.90;;;;;;5066254;28;20045;-72
2023/08/01 12:07:19;;;;;;;12.93;2.13;;;19.90;99.90;;;;;;5052983;28;256496;-72
2023/08/01 12:09:58;;;;;;;10.18;1.55;;;20.00;99.90;;;;;;5068623;28;20052;-72
2023/08/01 12:12:27;;;;;;;11.50;1.67;;;20.20;99.90;;;;;;5032361;28;245141;-71
2023/08/01 12:14:54;;;;;;;11.27;1.67;;;20.30;99.90;;;;;;5056661;28;20052;-70
2023/08/01 12:17:20;;;;;;;11.10;1.80;;;20.30;99.90;;;;;;5057555;28;257246;-70
2023/08/01 12:19:46;;;;;;;11.02;2.00;;;20.30;99.90;;;;;;5073784;28;20064;-70
2023/08/01 12:22:14;;;;;;;11.88;1.60;;;20.30;99.90;;;;;;5058925;28;127052;-70
2023/08/01 12:24:41;;;;;;;10.38;1.77;;;20.00;99.90;;;;;;5069092;28;20044;-69
2023/08/01 12:27:08;;;;;;;13.40;1.77;;;20.40;99.90;;;;;;5050540;28;264520;-71
2023/08/01 12:29:35;;;;;;;11.25;1.85;;;20.70;99.90;;;;;;5065707;28;20049;-71
2023/08/01 12:32:02;;;;;;;11.05;2.15;;;20.80;99.90;;;;;;5051526;28;259780;-71
2023/08/01 12:34:28;;;;;;;8.82;1.70;;;20.50;99.90;;;;;;5073121;28;20052;-71
2023/08/01 12:36:54;;;;;;;10.27;1.60;;;20.20;99.90;;;;;;5047863;28;261665;-71